Time;durP1;ratioP1;P1;durP2;ratioP2;P2;SDS_P1;SDS_P2;PMS_P1;PMS_P2;Temp;Humidity;BMP_temperature;BMP_pressure;BME280_temperature;BME280_humidity;BME280_pressure;Samples;Min_cycle;Max_cycle;Signal;HPM_P1;HPM_P2
2021/08/19 00:00:18;;;;;;;13.43;5.75;;;;;;;16.32;79.72;101472.16;5031477;28;20044;-67
2021/08/19 00:02:44;;;;;;;10.60;6.07;;;;;;;16.33;79.85;101464.97;5031535;28;20414;-67
2021/08/19 00:05:10;;;;;;;10.05;5.40;;;;;;;16.35;79.50;101463.09;5033678;28;20418;-67
2021/08/19 00:07:35;;;;;;;9.40;5.28;;;;;;;16.31;79.74;101465.09;5033247;28;20033;-67
2021/08/19 00:10:00;;;;;;;10.07;5.22;;;;;;;16.31;79.86;101461.56;5033766;28;20025;-67
2021/08/19 00:12:26;;;;;;;10.68;5.03;;;;;;;16.30;80.64;101462.50;5029694;28;20170;-67
2021/08/19 00:14:51;;;;;;;9.50;5.10;;;;;;;16.31;80.02;101456.22;5033320;28;20025;-67
2021/08/19 00:17:17;;;;;;;9.60;5.70;;;;;;;16.32;80.69;101457.94;5033341;28;20087;-66
2021/08/19 00:19:42;;;;;;;11.27;5.50;;;;;;;16.35;80.63;101455.06;5033148;28;20096;-67
2021/08/19 00:22:07;;;;;;;8.35;5.55;;;;;;;16.34;80.61;101461.38;5029750;28;20372;-67
2021/08/19 00:24:33;;;;;;;10.50;5.78;;;;;;;16.33;80.60;101459.63;5033329;28;20103;-66
2021/08/19 00:26:58;;;;;;;11.85;6.47;;;;;;;16.36;80.58;101460.31;5031652;28;20205;-66
2021/08/19 00:29:23;;;;;;;11.13;6.43;;;;;;;16.37;80.77;101459.38;5032886;28;20359;-67
2021/08/19 00:31:49;;;;;;;10.52;5.97;;;;;;;16.38;80.78;101457.56;5032535;28;20454;-67
2021/08/19 00:34:15;;;;;;;11.95;5.80;;;;;;;16.33;81.13;101459.63;5031500;28;20025;-67
2021/08/19 00:36:40;;;;;;;9.63;5.75;;;;;;;16.30;81.62;101460.69;5033082;28;20087;-67
2021/08/19 00:39:06;;;;;;;10.52;6.47;;;;;;;16.28;81.86;101456.38;5033053;28;20382;-67
2021/08/19 00:41:33;;;;;;;12.30;6.70;;;;;;;16.30;81.73;101457.16;5032849;28;20060;-67
2021/08/19 00:43:59;;;;;;;11.60;7.55;;;;;;;16.34;81.86;101459.56;5029091;28;20029;-67
2021/08/19 00:46:25;;;;;;;12.30;7.63;;;;;;;16.37;81.87;101456.69;5032348;28;20040;-67
2021/08/19 00:49:12;;;;;;;15.20;8.48;;;;;;;16.42;81.59;101453.78;5032536;28;20033;-67
2021/08/19 00:51:43;;;;;;;15.00;8.43;;;;;;;16.47;81.68;101446.34;5031835;28;20095;-67
2021/08/19 00:54:14;;;;;;;14.05;8.88;;;;;;;16.50;81.40;101448.81;5029186;28;20034;-66
2021/08/19 00:56:40;;;;;;;14.25;7.30;;;;;;;16.52;81.72;101443.38;5032927;28;20119;-67
2021/08/19 00:59:07;;;;;;;16.13;7.35;;;;;;;16.55;81.30;101445.88;5032259;28;20053;-68
2021/08/19 01:01:37;;;;;;;12.68;7.10;;;;;;;16.55;81.11;101441.38;5032574;28;20460;-67
2021/08/19 01:04:06;;;;;;;15.63;7.68;;;;;;;16.54;81.63;101433.44;5030564;28;20551;-66
2021/08/19 01:06:31;;;;;;;11.75;6.45;;;;;;;16.52;81.45;101433.56;5030468;28;20029;-67
2021/08/19 01:08:57;;;;;;;13.25;7.50;;;;;;;16.50;81.63;101443.47;5032711;28;20018;-67
2021/08/19 01:11:22;;;;;;;12.15;7.50;;;;;;;16.50;81.81;101431.91;5031844;28;20437;-67
2021/08/19 01:13:49;;;;;;;17.17;8.00;;;;;;;16.49;82.12;101435.53;5030471;28;20036;-67
2021/08/19 01:16:17;;;;;;;20.85;9.07;;;;;;;16.42;82.23;101435.06;5030805;28;20021;-68
2021/08/19 01:18:44;;;;;;;13.50;7.90;;;;;;;16.31;82.72;101440.19;5032515;28;20036;-68
2021/08/19 01:21:11;;;;;;;13.30;8.10;;;;;;;16.20;82.76;101435.47;5032504;28;20022;-67
2021/08/19 01:23:37;;;;;;;14.15;9.05;;;;;;;16.06;83.89;101436.25;5030785;28;20036;-68
2021/08/19 01:26:08;;;;;;;14.48;8.98;;;;;;;15.93;83.73;101446.81;5030646;28;20030;-67
2021/08/19 01:28:35;;;;;;;17.30;10.57;;;;;;;15.90;84.67;101441.66;5021383;28;20026;-67
2021/08/19 01:31:01;;;;;;;15.88;8.90;;;;;;;15.81;84.91;101440.38;5011839;28;20048;-65
2021/08/19 01:33:27;;;;;;;16.77;9.32;;;;;;;15.71;85.07;101442.66;5011674;28;20033;-66
2021/08/19 01:35:53;;;;;;;20.35;9.82;;;;;;;15.60;85.70;101446.91;5028638;28;20017;-67
2021/08/19 01:38:18;;;;;;;18.80;10.70;;;;;;;15.53;85.67;101435.72;5030009;28;20043;-67
2021/08/19 01:40:44;;;;;;;16.50;8.75;;;;;;;15.49;86.17;101444.84;5032019;28;20474;-67
2021/08/19 01:43:09;;;;;;;17.55;9.75;;;;;;;15.44;86.29;101436.22;5032470;28;20369;-67
2021/08/19 01:45:35;;;;;;;14.63;10.10;;;;;;;15.37;86.73;101441.91;5030524;28;20103;-68
2021/08/19 01:48:00;;;;;;;15.57;10.40;;;;;;;15.34;87.20;101438.53;5030057;28;20037;-67
2021/08/19 01:50:26;;;;;;;17.00;9.82;;;;;;;15.32;87.66;101440.41;5027717;28;20022;-67
2021/08/19 01:52:51;;;;;;;16.27;9.20;;;;;;;15.30;87.54;101445.84;5016734;28;20038;-67
2021/08/19 01:55:17;;;;;;;17.92;11.73;;;;;;;15.28;87.79;101441.53;5030290;28;20039;-67
2021/08/19 01:57:42;;;;;;;20.45;10.80;;;;;;;15.30;87.94;101443.19;5031035;28;20040;-67
2021/08/19 02:00:08;;;;;;;19.75;10.50;;;;;;;15.34;88.34;101441.22;5026440;28;20033;-67
2021/08/19 02:02:33;;;;;;;17.65;10.07;;;;;;;15.42;88.26;101444.31;5018404;28;20029;-68
2021/08/19 02:04:58;;;;;;;17.55;10.13;;;;;;;15.53;87.74;101441.06;5012322;28;20026;-67
2021/08/19 02:07:24;;;;;;;18.08;9.98;;;;;;;15.61;87.32;101452.13;5027539;28;20471;-66
2021/08/19 02:09:49;;;;;;;17.60;9.18;;;;;;;15.68;87.44;101442.84;5030436;28;20501;-67
2021/08/19 02:12:14;;;;;;;16.77;9.38;;;;;;;15.76;87.14;101445.09;5031916;28;20140;-67
2021/08/19 02:14:39;;;;;;;18.30;10.18;;;;;;;15.81;86.85;101440.38;5031673;28;20029;-67
2021/08/19 02:17:05;;;;;;;15.88;8.88;;;;;;;15.83;86.70;101429.59;5030428;28;20175;-66
2021/08/19 02:19:30;;;;;;;18.38;9.63;;;;;;;15.87;86.68;101440.03;5029981;28;20053;-67
2021/08/19 02:21:55;;;;;;;15.02;9.27;;;;;;;15.88;86.33;101435.53;5031284;28;20061;-66
2021/08/19 02:24:21;;;;;;;18.23;9.18;;;;;;;15.91;86.38;101447.84;5031767;28;20402;-67
2021/08/19 02:26:46;;;;;;;20.38;10.52;;;;;;;15.93;86.08;101440.63;5029984;28;20136;-67
2021/08/19 02:29:11;;;;;;;16.50;9.43;;;;;;;15.94;85.95;101435.19;5027618;28;20140;-66
2021/08/19 02:31:40;;;;;;;17.52;10.63;;;;;;;15.94;86.19;101437.00;5030262;28;20329;-67
2021/08/19 02:34:06;;;;;;;19.73;9.57;;;;;;;15.94;86.35;101437.84;5031550;28;20040;-67
2021/08/19 02:36:31;;;;;;;17.48;9.88;;;;;;;15.99;86.04;101440.25;5030423;28;20021;-66
2021/08/19 02:38:57;;;;;;;17.92;9.45;;;;;;;16.03;86.26;101439.97;5030638;28;20033;-67
2021/08/19 02:41:22;;;;;;;20.08;10.25;;;;;;;16.00;86.38;101434.81;5012396;28;20458;-67
2021/08/19 02:43:47;;;;;;;15.98;9.20;;;;;;;16.02;85.92;101419.59;5011358;28;20034;-68
2021/08/19 02:46:13;;;;;;;17.05;9.63;;;;;;;16.05;85.91;101427.41;5011716;28;20026;-67
2021/08/19 02:48:38;;;;;;;18.52;9.50;;;;;;;16.08;85.49;101421.00;5012698;28;20026;-67
2021/08/19 02:51:04;;;;;;;15.27;9.45;;;;;;;16.09;85.54;101417.41;5015978;28;20022;-67
2021/08/19 02:53:29;;;;;;;15.05;9.40;;;;;;;16.07;85.72;101423.78;5031664;28;20029;-67
2021/08/19 02:55:54;;;;;;;14.27;8.68;;;;;;;16.04;86.21;101412.31;5035059;28;20025;-67
2021/08/19 02:58:20;;;;;;;16.30;8.82;;;;;;;16.07;85.57;101416.63;5033122;28;20018;-67
2021/08/19 03:00:45;;;;;;;15.40;9.25;;;;;;;16.11;85.81;101415.47;5033159;28;20026;-66
2021/08/19 03:03:10;;;;;;;14.40;9.38;;;;;;;16.14;85.69;101417.09;5034738;28;20041;-67
2021/08/19 03:05:35;;;;;;;12.93;8.65;;;;;;;16.16;85.63;101415.22;5035114;28;20032;-67
2021/08/19 03:08:01;;;;;;;17.05;8.93;;;;;;;16.17;85.80;101411.59;5034904;28;20049;-67
2021/08/19 03:10:26;;;;;;;15.60;9.23;;;;;;;16.19;85.60;101407.88;5033220;28;20482;-67
2021/08/19 03:12:51;;;;;;;16.65;8.70;;;;;;;16.20;85.38;101412.28;5022053;28;20052;-67
2021/08/19 03:15:17;;;;;;;15.27;9.45;;;;;;;16.22;84.97;101407.69;5014866;28;20152;-67
2021/08/19 03:17:42;;;;;;;14.85;8.63;;;;;;;16.22;85.05;101414.84;5034335;28;20399;-68
2021/08/19 03:20:08;;;;;;;17.95;8.95;;;;;;;16.24;85.28;101421.00;5033282;28;20037;-67
2021/08/19 03:22:33;;;;;;;14.82;9.20;;;;;;;16.23;85.16;101416.59;5032885;28;20033;-67
2021/08/19 03:24:59;;;;;;;19.90;9.52;;;;;;;16.22;85.72;101412.19;5034707;28;20036;-67
2021/08/19 03:27:28;;;;;;;16.42;8.68;;;;;;;16.26;85.10;101412.88;5033821;28;20025;-66
2021/08/19 03:29:54;;;;;;;15.48;8.27;;;;;;;16.26;85.32;101413.72;5032536;28;20522;-67
2021/08/19 03:32:19;;;;;;;18.00;9.60;;;;;;;16.29;85.30;101404.66;5032526;28;20111;-67
2021/08/19 03:34:44;;;;;;;15.63;8.13;;;;;;;16.32;84.92;101407.16;5021865;28;20021;-67
2021/08/19 03:37:10;;;;;;;16.23;8.13;;;;;;;16.35;84.59;101397.13;5014464;28;20026;-67
2021/08/19 03:39:35;;;;;;;14.13;7.95;;;;;;;16.41;84.19;101400.38;5018482;28;20022;-66
2021/08/19 03:42:02;;;;;;;14.25;7.30;;;;;;;16.41;83.75;101395.91;5021636;28;20092;-67
2021/08/19 03:44:28;;;;;;;13.05;7.63;;;;;;;16.46;83.61;101395.59;5027740;28;20033;-68
2021/08/19 03:46:53;;;;;;;14.05;7.15;;;;;;;16.45;83.42;101400.09;5034105;28;20022;-67
2021/08/19 03:49:18;;;;;;;14.52;7.80;;;;;;;16.50;83.22;101399.84;5034130;28;20471;-67
2021/08/19 03:51:44;;;;;;;14.23;6.88;;;;;;;16.50;83.13;101403.38;5032404;28;20025;-67
2021/08/19 03:54:09;;;;;;;13.35;7.35;;;;;;;16.51;82.82;101401.56;5032395;28;20371;-67
2021/08/19 03:56:38;;;;;;;12.35;6.82;;;;;;;16.52;82.31;101406.81;5032181;28;20026;-68
2021/08/19 03:59:05;;;;;;;11.52;6.82;;;;;;;16.55;82.20;101389.72;5014576;28;20026;-67
2021/08/19 04:01:30;;;;;;;12.48;5.97;;;;;;;16.59;81.47;101398.44;5014778;28;20045;-67
2021/08/19 04:03:55;;;;;;;9.10;5.95;;;;;;;16.60;81.99;101400.13;5013724;28;20102;-67
2021/08/19 04:06:20;;;;;;;11.02;6.45;;;;;;;16.62;81.43;101398.22;5015434;28;20038;-67
2021/08/19 04:08:46;;;;;;;9.10;5.68;;;;;;;16.66;80.90;101394.41;5014516;28;20022;-67
2021/08/19 04:11:12;;;;;;;12.75;6.07;;;;;;;16.63;81.13;101397.28;5014834;28;20029;-67
2021/08/19 04:13:39;;;;;;;8.10;5.78;;;;;;;16.67;80.66;101396.97;5014316;28;20458;-67
2021/08/19 04:16:06;;;;;;;9.93;5.60;;;;;;;16.68;80.59;101406.72;5015410;28;20034;-67
2021/08/19 04:18:31;;;;;;;8.35;5.82;;;;;;;16.67;80.68;101406.81;5013506;28;20026;-67
2021/08/19 04:20:56;;;;;;;11.60;6.22;;;;;;;16.66;80.29;101389.94;5014228;28;20075;-68
2021/08/19 04:23:22;;;;;;;9.07;5.88;;;;;;;16.69;80.17;101402.25;5014862;28;20041;-67
2021/08/19 04:25:47;;;;;;;11.30;5.82;;;;;;;16.71;80.23;101400.31;5014819;28;20025;-67
2021/08/19 04:28:12;;;;;;;11.80;5.50;;;;;;;16.74;80.07;101397.47;5014065;28;20045;-67
2021/08/19 04:30:38;;;;;;;9.07;5.43;;;;;;;16.77;79.62;101399.94;5013939;28;20025;-69
2021/08/19 04:33:03;;;;;;;7.93;5.32;;;;;;;16.79;79.58;101397.16;5015153;28;20172;-68
2021/08/19 04:35:32;;;;;;;8.07;5.03;;;;;;;16.79;80.21;101387.34;5013827;28;20022;-68
2021/08/19 04:37:58;;;;;;;8.50;5.00;;;;;;;16.77;79.81;101397.28;5019362;28;20481;-67
2021/08/19 04:40:24;;;;;;;7.30;5.50;;;;;;;16.75;80.19;101383.13;5014302;28;20029;-67
2021/08/19 04:42:50;;;;;;;7.82;5.22;;;;;;;16.78;79.57;101399.00;5019324;28;20475;-68
2021/08/19 04:45:15;;;;;;;8.13;5.40;;;;;;;16.81;79.25;101389.91;5033263;28;20018;-67
2021/08/19 04:47:41;;;;;;;9.55;5.40;;;;;;;16.77;79.73;101391.91;5031914;28;20044;-67
2021/08/19 04:50:06;;;;;;;9.18;5.35;;;;;;;16.79;79.54;101390.03;5032840;28;20030;-67
2021/08/19 04:52:32;;;;;;;9.55;5.60;;;;;;;16.78;79.94;101393.66;5032015;28;20041;-67
2021/08/19 04:54:57;;;;;;;8.73;5.00;;;;;;;16.78;79.89;101396.31;5032394;28;20039;-67
2021/08/19 04:57:22;;;;;;;10.45;5.57;;;;;;;16.81;79.68;101400.63;5031446;28;20117;-67
2021/08/19 04:59:47;;;;;;;8.85;5.43;;;;;;;16.80;79.58;101398.91;5032537;28;20024;-68
2021/08/19 05:02:13;;;;;;;7.35;4.90;;;;;;;16.84;79.30;101398.63;5016677;28;20037;-68
2021/08/19 05:04:38;;;;;;;7.90;5.13;;;;;;;16.88;79.23;101402.81;5013977;28;20025;-67
2021/08/19 05:07:03;;;;;;;7.45;4.97;;;;;;;16.92;79.27;101395.50;5013254;28;20037;-67
2021/08/19 05:09:29;;;;;;;9.55;5.10;;;;;;;16.92;79.01;101392.81;5015787;28;20037;-67
2021/08/19 05:11:54;;;;;;;9.32;5.35;;;;;;;16.90;80.08;101397.34;5031564;28;20037;-67
2021/08/19 05:14:19;;;;;;;8.20;4.93;;;;;;;16.95;79.16;101402.47;5030952;28;20041;-66
2021/08/19 05:16:45;;;;;;;8.77;5.53;;;;;;;16.99;79.10;101404.00;5029543;28;20526;-67
2021/08/19 05:19:10;;;;;;;9.38;6.00;;;;;;;16.99;79.13;101402.16;5032124;28;20087;-67
2021/08/19 05:21:36;;;;;;;9.48;5.25;;;;;;;17.04;78.73;101404.56;5032575;28;20482;-67
2021/08/19 05:24:01;;;;;;;9.45;5.22;;;;;;;17.03;79.20;101403.72;5031190;28;20418;-69
2021/08/19 05:26:26;;;;;;;8.32;5.25;;;;;;;17.04;79.24;101413.44;5032204;28;20033;-68
2021/08/19 05:28:51;;;;;;;9.25;5.22;;;;;;;17.07;79.01;101420.41;5032160;28;20052;-67
2021/08/19 05:31:17;;;;;;;11.82;6.45;;;;;;;17.07;79.23;101412.38;5030836;28;20075;-66
2021/08/19 05:33:43;;;;;;;10.43;5.70;;;;;;;17.00;79.95;101416.41;5033072;28;20022;-68
2021/08/19 05:36:09;;;;;;;8.93;6.10;;;;;;;16.96;80.61;101423.75;5030733;28;20029;-68
2021/08/19 05:38:38;;;;;;;11.23;6.68;;;;;;;17.00;80.23;101417.25;5032031;28;20056;-67
2021/08/19 05:41:04;;;;;;;12.10;6.75;;;;;;;17.00;80.50;101413.75;5028743;28;20029;-68
2021/08/19 05:43:30;;;;;;;10.30;7.05;;;;;;;16.99;80.28;101415.53;5029774;28;20155;-66
2021/08/19 05:45:55;;;;;;;13.15;7.00;;;;;;;16.98;80.59;101415.63;5027281;28;20415;-67
2021/08/19 05:48:20;;;;;;;16.55;7.45;;;;;;;16.98;80.61;101416.53;5028996;28;20459;-67
2021/08/19 05:50:46;;;;;;;13.73;7.40;;;;;;;17.02;80.40;101417.16;5028892;28;20022;-66
2021/08/19 05:53:11;;;;;;;14.88;7.45;;;;;;;17.07;79.80;101420.41;5028185;28;20394;-66
2021/08/19 05:55:36;;;;;;;11.43;6.95;;;;;;;17.09;79.65;101426.53;5027059;28;20067;-67
2021/08/19 05:58:02;;;;;;;13.90;7.53;;;;;;;17.09;79.90;101420.34;5021411;28;20094;-66
2021/08/19 06:00:27;;;;;;;13.70;7.82;;;;;;;17.07;79.68;101430.25;5021485;28;20301;-66
2021/08/19 06:02:53;;;;;;;12.70;8.20;;;;;;;17.07;79.12;101423.06;5025806;28;20224;-66
2021/08/19 06:05:18;;;;;;;16.48;8.52;;;;;;;17.06;79.29;101421.38;5027476;28;20018;-65
2021/08/19 06:07:44;;;;;;;16.38;7.80;;;;;;;17.06;79.46;101418.72;5016694;28;20439;-67
2021/08/19 06:10:12;;;;;;;13.95;7.43;;;;;;;17.10;78.63;101424.72;5020724;28;20451;-67
2021/08/19 06:12:37;;;;;;;10.35;7.03;;;;;;;17.11;78.95;101418.41;5027186;28;20052;-67
2021/08/19 06:15:04;;;;;;;10.95;7.10;;;;;;;17.06;78.94;101424.06;5029506;28;20116;-64
2021/08/19 06:17:29;;;;;;;12.48;7.72;;;;;;;17.05;78.80;101416.97;5025149;28;20362;-65
2021/08/19 06:19:54;;;;;;;11.40;8.20;;;;;;;17.07;78.92;101422.22;5032943;28;20041;-65
2021/08/19 06:22:20;;;;;;;12.55;7.90;;;;;;;17.11;79.36;101423.75;5029540;28;20030;-67
2021/08/19 06:24:45;;;;;;;13.43;7.60;;;;;;;17.14;79.16;101423.56;5030504;28;20029;-65
2021/08/19 06:27:11;;;;;;;10.82;7.28;;;;;;;17.14;79.19;101427.09;5032535;28;20474;-66
2021/08/19 06:29:36;;;;;;;16.60;8.27;;;;;;;17.14;79.70;101423.56;5032728;28;20110;-67
2021/08/19 06:32:01;;;;;;;15.75;8.15;;;;;;;17.14;79.78;101429.78;5033973;28;20540;-65
2021/08/19 06:34:28;;;;;;;13.50;8.00;;;;;;;17.15;79.82;101426.16;5028178;28;20025;-67
2021/08/19 06:36:53;;;;;;;14.50;7.88;;;;;;;17.15;79.85;101422.63;5032509;28;20489;-67
2021/08/19 06:39:19;;;;;;;20.25;8.85;;;;;;;17.12;80.18;101423.69;5033443;28;20029;-66
2021/08/19 06:41:45;;;;;;;14.20;7.78;;;;;;;17.16;79.95;101432.34;5032273;28;20028;-68
2021/08/19 06:44:10;;;;;;;14.80;7.57;;;;;;;17.12;80.37;101428.16;5025201;28;20044;-66
2021/08/19 06:46:36;;;;;;;14.68;8.02;;;;;;;17.14;80.55;101426.25;5033285;28;20037;-66
2021/08/19 06:49:01;;;;;;;16.23;8.23;;;;;;;17.19;80.42;101429.50;5032842;28;20092;-66
2021/08/19 06:51:27;;;;;;;14.75;8.27;;;;;;;17.22;79.85;101439.16;5013985;28;20037;-66
2021/08/19 06:53:52;;;;;;;15.55;7.90;;;;;;;17.17;80.28;101426.91;5033624;28;20037;-66
2021/08/19 06:56:18;;;;;;;12.25;7.95;;;;;;;17.21;80.27;101430.25;5030809;28;20033;-65
2021/08/19 06:58:44;;;;;;;14.15;7.93;;;;;;;17.24;80.47;101438.09;5032343;28;20459;-66
2021/08/19 07:01:09;;;;;;;12.07;7.60;;;;;;;17.28;80.34;101436.94;5031403;28;20382;-67
2021/08/19 07:03:35;;;;;;;11.75;7.80;;;;;;;17.28;80.28;101438.75;5019019;28;20030;-65
2021/08/19 07:06:00;;;;;;;14.98;7.93;;;;;;;17.34;80.31;101436.53;5027244;28;20071;-67
2021/08/19 07:08:25;;;;;;;14.65;8.43;;;;;;;17.38;80.02;101447.91;5031922;28;20022;-66
2021/08/19 07:10:51;;;;;;;16.90;8.60;;;;;;;17.38;79.95;101445.25;5031611;28;20030;-66
2021/08/19 07:13:16;;;;;;;16.15;8.43;;;;;;;17.42;80.27;101446.75;5026059;28;20456;-67
2021/08/19 07:15:42;;;;;;;14.77;7.65;;;;;;;17.43;80.16;101440.44;5044045;28;20037;-65
2021/08/19 07:18:08;;;;;;;12.00;7.90;;;;;;;17.44;79.88;101444.84;5051730;28;20037;-66
2021/08/19 07:20:34;;;;;;;13.38;7.90;;;;;;;17.48;79.77;101450.84;5024566;28;20030;-64
2021/08/19 07:22:59;;;;;;;15.18;7.95;;;;;;;17.41;79.58;101442.34;5011745;28;20081;-65
2021/08/19 07:25:25;;;;;;;12.38;8.02;;;;;;;17.46;79.30;101442.06;5013234;28;20018;-65
2021/08/19 07:27:50;;;;;;;13.48;8.10;;;;;;;17.44;79.72;101438.63;5011649;28;20121;-65
2021/08/19 07:30:17;;;;;;;15.15;8.40;;;;;;;17.36;80.20;101453.34;5025024;28;20082;-67
2021/08/19 07:32:42;;;;;;;14.95;8.48;;;;;;;17.41;80.22;101449.53;5038527;28;20057;-66
2021/08/19 07:35:09;;;;;;;12.75;7.88;;;;;;;17.41;79.68;101450.38;5033882;28;20355;-66
2021/08/19 07:37:34;;;;;;;15.38;8.35;;;;;;;17.42;79.46;101449.44;5032130;28;20171;-65
2021/08/19 07:40:00;;;;;;;12.02;7.53;;;;;;;17.44;79.62;101449.34;5031986;28;20037;-66
2021/08/19 07:42:25;;;;;;;12.90;8.50;;;;;;;17.45;80.17;101457.25;5030922;28;20029;-66
2021/08/19 07:44:50;;;;;;;13.93;8.00;;;;;;;17.44;80.11;101458.25;5031158;28;20109;-65
2021/08/19 07:47:16;;;;;;;12.57;7.78;;;;;;;17.36;80.26;101455.19;5033110;28;20127;-66
2021/08/19 07:49:41;;;;;;;16.48;7.82;;;;;;;17.37;80.07;101454.22;5031638;28;20038;-66
2021/08/19 07:52:06;;;;;;;12.75;7.63;;;;;;;17.34;80.44;101451.72;5028307;28;20065;-64
2021/08/19 07:54:32;;;;;;;16.77;7.78;;;;;;;17.37;80.28;101459.56;5012153;28;20435;-66
2021/08/19 07:56:58;;;;;;;13.15;8.10;;;;;;;17.38;80.87;101465.78;5017749;28;20025;-63
2021/08/19 07:59:23;;;;;;;14.85;7.85;;;;;;;17.38;80.98;101463.09;5031291;28;20112;-65
2021/08/19 08:01:48;;;;;;;14.57;7.72;;;;;;;17.36;80.55;101466.72;5013866;28;20025;-66
2021/08/19 08:04:13;;;;;;;14.45;7.95;;;;;;;17.41;80.18;101473.63;5031513;28;20069;-63
2021/08/19 08:06:39;;;;;;;14.25;8.38;;;;;;;17.51;80.19;101470.25;5030261;28;20084;-65
2021/08/19 08:09:05;;;;;;;15.35;8.48;;;;;;;17.62;79.52;101472.25;5029336;28;20469;-64
2021/08/19 08:11:30;;;;;;;14.52;7.70;;;;;;;17.68;78.48;101471.84;5030360;28;20041;-67
2021/08/19 08:13:56;;;;;;;13.73;7.53;;;;;;;17.67;78.62;101471.94;5029570;28;20044;-66
2021/08/19 08:16:21;;;;;;;11.50;6.75;;;;;;;17.68;78.57;101476.34;5031112;28;20084;-66
2021/08/19 08:18:47;;;;;;;14.98;8.02;;;;;;;17.67;78.42;101479.97;5030271;28;20133;-67
2021/08/19 08:21:14;;;;;;;14.00;8.18;;;;;;;17.63;79.58;101484.66;5030732;28;20029;-65
2021/08/19 08:23:42;;;;;;;15.43;8.77;;;;;;;17.64;79.04;101473.00;5028881;28;20025;-65
2021/08/19 08:26:11;;;;;;;14.60;8.70;;;;;;;17.68;79.04;101476.34;5031200;28;20506;-66
2021/08/19 08:28:36;;;;;;;14.07;7.80;;;;;;;17.65;79.20;101485.44;5030144;28;20045;-66
2021/08/19 08:31:03;;;;;;;14.15;8.07;;;;;;;17.66;78.46;101479.13;5011876;28;20155;-66
2021/08/19 08:33:30;;;;;;;14.20;8.30;;;;;;;17.72;78.42;101483.22;4993266;28;20415;-67
2021/08/19 08:35:56;;;;;;;17.58;7.80;;;;;;;17.74;78.30;101480.47;5022886;28;20048;-65
2021/08/19 08:38:22;;;;;;;14.90;7.95;;;;;;;17.76;78.57;101476.72;5027915;28;20029;-66
2021/08/19 08:40:49;;;;;;;14.13;7.20;;;;;;;17.74;77.99;101488.50;5027583;28;20033;-66
2021/08/19 08:43:16;;;;;;;12.50;7.60;;;;;;;17.73;77.69;101489.44;5023206;28;20037;-65
2021/08/19 08:45:43;;;;;;;14.25;8.07;;;;;;;17.66;78.03;101489.84;5025383;28;20049;-66
2021/08/19 08:48:18;;;;;;;13.13;7.60;;;;;;;17.75;77.75;101499.09;5023065;28;20026;-66
2021/08/19 08:50:46;;;;;;;14.27;8.07;;;;;;;17.76;78.00;101492.78;5028732;28;20079;-66
2021/08/19 08:53:12;;;;;;;13.93;7.72;;;;;;;17.81;77.08;101493.34;5029891;28;20027;-67
2021/08/19 08:55:38;;;;;;;18.67;9.38;;;;;;;17.84;77.34;101501.19;5025441;28;20029;-66
2021/08/19 08:58:05;;;;;;;12.35;7.78;;;;;;;17.92;76.97;101499.84;5019339;28;20028;-65
2021/08/19 09:00:30;;;;;;;19.65;8.68;;;;;;;17.93;77.99;101494.41;5019622;28;20029;-66
2021/08/19 09:02:56;;;;;;;19.95;9.15;;;;;;;18.07;76.89;101509.56;5018481;28;20040;-65
2021/08/19 09:05:26;;;;;;;13.30;7.45;;;;;;;18.14;76.38;101510.03;5015406;28;20037;-67
2021/08/19 09:07:59;;;;;;;12.00;7.15;;;;;;;18.27;76.19;101502.88;5025021;28;20521;-66
2021/08/19 09:10:30;;;;;;;11.50;6.57;;;;;;;18.38;76.14;101504.84;5012819;28;20038;-67
2021/08/19 09:13:04;;;;;;;12.93;7.25;;;;;;;18.23;75.72;101511.22;5030330;28;20049;-66
2021/08/19 09:15:29;;;;;;;12.43;6.95;;;;;;;18.08;77.08;101507.75;5039581;28;20034;-67
2021/08/19 09:18:04;;;;;;;14.80;7.95;;;;;;;18.02;77.26;101509.88;5068730;28;20399;-65
2021/08/19 09:20:41;;;;;;;12.50;7.80;;;;;;;18.12;76.97;101512.81;5056906;28;20207;-67
2021/08/19 09:23:09;;;;;;;13.00;7.45;;;;;;;18.16;76.83;101513.47;5056787;28;20127;-66
2021/08/19 09:25:43;;;;;;;13.88;8.05;;;;;;;18.31;76.41;101507.09;5056986;28;20075;-63
2021/08/19 09:28:18;;;;;;;15.27;7.53;;;;;;;18.36;76.49;101514.78;5040907;28;20035;-64
2021/08/19 09:30:47;;;;;;;14.80;7.82;;;;;;;18.42;76.08;101510.88;5067942;28;20110;-66
2021/08/19 09:33:15;;;;;;;10.90;7.30;;;;;;;18.67;75.78;101516.28;5050656;28;20025;-69
2021/08/19 09:35:41;;;;;;;13.30;7.38;;;;;;;18.78;74.82;101515.53;5054091;28;20052;-67
2021/08/19 09:38:09;;;;;;;13.75;7.30;;;;;;;18.92;74.29;101505.69;5059199;28;20041;-65
2021/08/19 09:40:35;;;;;;;11.70;7.30;;;;;;;18.90;73.77;101521.91;5057303;28;20032;-65
2021/08/19 09:43:00;;;;;;;15.20;7.38;;;;;;;18.78;74.21;101518.19;5067941;28;20128;-66
2021/08/19 09:45:26;;;;;;;12.07;7.15;;;;;;;18.83;74.10;101510.69;5051997;28;20491;-66
2021/08/19 09:48:04;;;;;;;12.57;7.30;;;;;;;18.95;73.87;101502.78;5049020;28;20053;-67
2021/08/19 09:50:30;;;;;;;16.38;6.60;;;;;;;19.07;72.95;101509.16;5048049;28;20025;-67
2021/08/19 09:53:12;;;;;;;11.90;6.82;;;;;;;18.99;73.02;101505.16;5059767;28;20090;-66
2021/08/19 09:55:38;;;;;;;16.15;6.90;;;;;;;19.08;71.73;101502.78;5047276;28;20035;-66
2021/08/19 09:58:03;;;;;;;10.45;7.00;;;;;;;19.14;72.20;101511.28;5049168;28;20029;-65
2021/08/19 10:00:32;;;;;;;10.15;6.88;;;;;;;19.13;71.10;101517.63;5048115;28;20461;-66
2021/08/19 10:02:59;;;;;;;9.82;6.38;;;;;;;18.96;71.26;101515.25;5055288;28;20116;-66
2021/08/19 10:05:25;;;;;;;18.75;6.47;;;;;;;18.88;71.55;101501.50;5051909;28;20023;-66
2021/08/19 10:07:51;;;;;;;9.43;5.65;;;;;;;19.01;71.11;101506.88;5046861;28;20474;-67
2021/08/19 10:10:17;;;;;;;13.02;5.55;;;;;;;19.07;70.37;101515.38;5047348;28;20017;-67
2021/08/19 10:12:45;;;;;;;9.43;5.70;;;;;;;19.09;70.82;101507.19;5046762;28;20122;-67
2021/08/19 10:15:12;;;;;;;11.55;5.65;;;;;;;19.03;70.92;101504.94;5052681;28;20026;-67
2021/08/19 10:17:41;;;;;;;9.45;5.90;;;;;;;19.12;70.64;101505.16;5049436;28;20129;-66
2021/08/19 10:20:10;;;;;;;12.65;5.45;;;;;;;19.35;69.52;101505.34;5048323;28;20079;-67
2021/08/19 10:22:36;;;;;;;11.70;5.55;;;;;;;19.60;70.23;101511.63;5049579;28;20029;-65
2021/08/19 10:25:04;;;;;;;12.20;5.45;;;;;;;19.60;68.86;101507.16;5048587;28;20465;-66
2021/08/19 10:27:31;;;;;;;10.15;5.38;;;;;;;19.65;69.24;101502.28;5046983;28;20037;-67
2021/08/19 10:30:07;;;;;;;11.15;5.60;;;;;;;19.88;68.64;101501.59;5045579;28;20476;-66
2021/08/19 10:32:36;;;;;;;10.10;5.15;;;;;;;19.84;68.03;101505.50;5055466;28;20032;-68
2021/08/19 10:35:13;;;;;;;7.38;4.60;;;;;;;19.77;66.85;101513.97;5038890;28;20423;-67
2021/08/19 10:40:21;;;;;;;10.35;4.82;;;;;;;19.65;68.32;101513.03;5041556;28;20041;-67
2021/08/19 10:42:51;;;;;;;10.05;4.50;;;;;;;19.63;67.54;101509.59;5051247;28;20033;-68
2021/08/19 10:45:28;;;;;;;8.57;4.85;;;;;;;19.70;67.84;101510.00;5044356;28;20407;-67
2021/08/19 10:48:15;;;;;;;9.32;4.57;;;;;;;19.58;67.55;101508.22;5035846;28;20477;-67
2021/08/19 10:50:42;;;;;;;9.07;4.15;;;;;;;19.51;67.76;101512.31;5034597;28;20024;-67
2021/08/19 10:53:14;;;;;;;6.57;3.95;;;;;;;19.36;67.90;101514.25;5054576;28;20045;-67
2021/08/19 10:55:45;;;;;;;8.18;4.38;;;;;;;19.28;68.34;101515.69;5052003;28;20032;-66
2021/08/19 10:58:31;;;;;;;6.15;3.92;;;;;;;19.24;68.49;101511.47;5034367;28;20545;-67
2021/08/19 11:01:02;;;;;;;8.00;4.18;;;;;;;19.25;69.04;101521.25;5043946;28;20123;-67
2021/08/19 11:03:36;;;;;;;8.30;4.07;;;;;;;19.12;69.51;101513.22;5054173;28;20512;-66
2021/08/19 11:06:04;;;;;;;7.15;4.18;;;;;;;19.07;69.24;101514.53;5042058;28;20640;-67
2021/08/19 11:08:49;;;;;;;8.48;4.15;;;;;;;18.95;69.90;101513.53;5039271;28;20029;-66
2021/08/19 11:11:34;;;;;;;7.20;4.10;;;;;;;18.94;70.14;101519.84;5051516;28;20039;-67
2021/08/19 11:14:13;;;;;;;7.78;5.22;;;;;;;18.92;70.89;101514.59;5053524;28;20032;-67
2021/08/19 11:16:53;;;;;;;10.25;4.70;;;;;;;18.72;71.90;101518.66;5034253;28;20049;-67
2021/08/19 11:19:21;;;;;;;10.85;5.00;;;;;;;18.70;71.99;101531.31;5037302;28;20543;-67